Orion II — 9HUT9 — position and weather

sailwx.info

Track history (hours):
 
Tides and Currents Weather Stations Pressure Air Temp Water Temp Dewpoint Dewpoint Depression Visibility Wind Speed Wind Dir Waves Ship Positions

Orion II

Last reported at 2017-Aug-20 13:16 UTC. Time now 2017-Aug-20 13:40 UTC.
Position N 53°21' W 006°13'.

Length 88 m; draft 4 m.

MMSI: 249556000.

Date/timePositionNaut miles runAvg speedWind from/ knotsBaromVisibWave heightAir tempDewpointWater temp
2017-Aug-20 13:16N 53°21' W 006°13'0 0.0
2017-Aug-20 12:43N 53°21' W 006°13'0 0.0
2017-Aug-20 12:28N 53°21' W 006°13'0 0.0
2017-Aug-20 11:58N 53°21' W 006°13'0 0.0
2017-Aug-20 11:28N 53°21' W 006°13'0 0.0
2017-Aug-20 10:55N 53°21' W 006°13'0 0.0
2017-Aug-20 10:19N 53°21' W 006°13'0 0.0
2017-Aug-20 09:52N 53°21' W 006°13'0 0.0
2017-Aug-20 09:13N 53°21' W 006°13'0 0.0
2017-Aug-20 08:58N 53°21' W 006°13'0 0.0
2017-Aug-20 08:28N 53°21' W 006°13'0 0.0
2017-Aug-20 07:34N 53°21' W 006°13'0 0.0
2017-Aug-20 06:31N 53°21' W 006°13'0 0.1
2017-Aug-20 06:25N 53°21' W 006°13'0 0.0
2017-Aug-20 05:52N 53°21' W 006°13'0 0.0
2017-Aug-20 05:29N 53°21' W 006°13'1 1.4
2017-Aug-20 05:01N 53°21' W 006°12'510.6
2017-Aug-20 04:31N 53°21' W 006°03'4 7.3
2017-Aug-20 04:00N 53°23' W 005°58'4 7.6
2017-Aug-20 03:31N 53°26' W 005°54'38 8.2
2017-Aug-19 22:54N 54°01' W 005°31'410.8
2017-Aug-19 22:31N 54°05' W 005°28'611.1
2017-Aug-19 22:01N 54°10' W 005°25'611.5
2017-Aug-19 21:31N 54°15' W 005°21'611.6
2017-Aug-19 21:01N 54°21' W 005°18'612.3
2017-Aug-19 20:30N 54°27' W 005°17'612.4
2017-Aug-19 19:59N 54°33' W 005°19'613.2
2017-Aug-19 19:31N 54°38' W 005°25'612.0
2017-Aug-19 19:00N 54°42' W 005°33'612.1
2017-Aug-19 18:30N 54°42' W 005°43'611.2
2017-Aug-19 17:58N 54°39' W 005°52'3 0.3
2017-Aug-19 08:53N 54°37' W 005°55'0 0.0
2017-Aug-19 08:29N 54°37' W 005°55'0 0.0
2017-Aug-19 06:57N 54°37' W 005°55'0 1.0
2017-Aug-19 06:28N 54°37' W 005°54'4 9.4
2017-Aug-19 06:00N 54°41' W 005°49'3 6.9
2017-Aug-19 05:30N 54°42' W 005°44'3 6.3
2017-Aug-19 05:00N 54°44' W 005°40'4 8.8
2017-Aug-19 04:30N 54°48' W 005°39'3613.1
2017-Aug-19 01:44N 55°21' W 006°08'312.1
2017-Aug-19 01:30N 55°22' W 006°12'612.2
2017-Aug-19 01:00N 55°26' W 006°20'612.6
2017-Aug-19 00:31N 55°32' W 006°25'612.1
2017-Aug-19 00:00N 55°37' W 006°31'510.4
2017-Aug-18 23:30N 55°42' W 006°34'611.6
2017-Aug-18 23:01N 55°47' W 006°33'4912.8
2017-Aug-18 19:12N 56°25' W 005°37'156 3.3
2017-Aug-16 19:54N 58°51' W 003°53'411.0
2017-Aug-16 19:30N 58°52' W 003°45'510.6
2017-Aug-16 19:00N 58°54' W 003°36'611.8
2017-Aug-16 18:30N 58°56' W 003°25'4 7.8
2017-Aug-16 17:59N 58°58' W 003°18'0 0.0
2017-Aug-16 17:29N 58°58' W 003°18'0 0.0
2017-Aug-16 16:59N 58°58' W 003°18'0 0.0
2017-Aug-16 16:23N 58°58' W 003°18'0 0.0
2017-Aug-16 15:59N 58°58' W 003°18'0 0.0
2017-Aug-16 15:29N 58°58' W 003°18'0 0.0
2017-Aug-16 14:59N 58°58' W 003°18'0 0.0
2017-Aug-16 14:29N 58°58' W 003°18'0 0.0
2017-Aug-16 13:59N 58°58' W 003°18'0 0.0
2017-Aug-16 13:29N 58°58' W 003°18'0 0.0
2017-Aug-16 12:59N 58°58' W 003°18'0 0.0
2017-Aug-16 12:27N 58°58' W 003°18'0 0.0
2017-Aug-16 11:59N 58°58' W 003°18'0 0.0
2017-Aug-16 11:29N 58°58' W 003°18'0 0.0
2017-Aug-16 10:59N 58°58' W 003°18'0 0.0
2017-Aug-16 10:27N 58°58' W 003°18'0 0.0
2017-Aug-16 09:51N 58°58' W 003°18'0 0.0
2017-Aug-16 09:27N 58°58' W 003°18'0 0.0
2017-Aug-16 08:57N 58°58' W 003°18'0 0.0
2017-Aug-16 08:27N 58°58' W 003°18'0 0.0
2017-Aug-16 07:57N 58°58' W 003°18'0 0.0
2017-Aug-16 07:29N 58°58' W 003°18'0 0.0
2017-Aug-16 06:59N 58°58' W 003°18'0 0.0
2017-Aug-16 06:30N 58°58' W 003°18'1 2.8
2017-Aug-16 06:00N 58°57' W 003°16'612.8
2017-Aug-16 05:30N 58°54' W 003°05'714.1
2017-Aug-16 05:01N 58°47' W 003°02'510.8
2017-Aug-16 04:30N 58°42' W 002°59'5 9.1
2017-Aug-16 04:00N 58°38' W 002°55'5 9.0
2017-Aug-16 03:30N 58°34' W 002°49'5710.7
2017-Aug-15 22:11N 57°47' W 001°48'3 8.2
2017-Aug-15 21:48N 57°44' W 001°45'2 7.8
2017-Aug-15 21:30N 57°42' W 001°43'2810.5
2017-Aug-15 18:48N 57°15' W 001°54'311.3
2017-Aug-15 18:30N 57°12' W 001°57'510.2
2017-Aug-15 18:00N 57°09' W 002°04'1 1.3
2017-Aug-15 17:27N 57°09' W 002°05'0 0.0
2017-Aug-15 16:57N 57°09' W 002°05'0 0.0
2017-Aug-15 16:28N 57°09' W 002°05'0 0.0
2017-Aug-15 15:58N 57°09' W 002°05'0 0.0
2017-Aug-15 15:28N 57°09' W 002°05'0 0.0
2017-Aug-15 14:58N 57°09' W 002°05'0 0.0
2017-Aug-15 14:29N 57°09' W 002°05'0 0.0
2017-Aug-15 13:59N 57°09' W 002°05'0 0.0
2017-Aug-15 13:29N 57°09' W 002°05'0 0.0
2017-Aug-15 12:59N 57°09' W 002°05'0 0.0
2017-Aug-15 12:28N 57°09' W 002°05'0 0.0
2017-Aug-15 11:58N 57°09' W 002°05'0 0.0
2017-Aug-15 11:28N 57°09' W 002°05'0 0.0
2017-Aug-15 10:58N 57°09' W 002°05'0 0.0
2017-Aug-15 10:28N 57°09' W 002°05'0 0.0
2017-Aug-15 09:59N 57°09' W 002°05'0 0.0
2017-Aug-15 09:28N 57°09' W 002°05'0 0.0
2017-Aug-15 08:58N 57°09' W 002°05'0 0.0
2017-Aug-15 08:29N 57°09' W 002°05'0 0.0
2017-Aug-15 07:59N 57°09' W 002°05'0 0.0
2017-Aug-15 07:30N 57°09' W 002°05'0 0.0
2017-Aug-15 07:00N 57°09' W 002°05'0 0.0
2017-Aug-15 06:30N 57°09' W 002°05'0 0.0
2017-Aug-15 06:00N 57°09' W 002°05'0 0.5
2017-Aug-15 05:30N 57°09' W 002°05'2 4.9
2017-Aug-15 05:00N 57°08' W 002°00'2 4.4
2017-Aug-15 04:30N 57°06' W 002°01'611.3
2017-Aug-15 03:57N 57°00' W 002°04'3011.5
2017-Aug-15 01:22N 56°31' W 002°16'1512.6
2017-Aug-15 00:11N 56°18' W 002°28'213.4
2017-Aug-15 00:00N 56°16' W 002°30'713.5
2017-Aug-14 23:30N 56°11' W 002°39'713.2
2017-Aug-14 23:00N 56°07' W 002°49'713.6
2017-Aug-14 22:30N 56°04' W 002°59'611.5
2017-Aug-14 22:00N 56°01' W 003°08'2 4.4
2017-Aug-14 21:28N 55°59' W 003°11'0 0.5
2017-Aug-14 20:58N 55°59' W 003°11'0 0.3
2017-Aug-14 20:28N 55°59' W 003°11'0 0.0
2017-Aug-14 19:58N 55°59' W 003°11'0 0.0
2017-Aug-14 19:28N 55°59' W 003°11'0 0.0
2017-Aug-14 18:58N 55°59' W 003°11'0 0.0
2017-Aug-14 18:29N 55°59' W 003°11'0 0.0
2017-Aug-14 17:58N 55°59' W 003°11'0 0.0
2017-Aug-14 17:28N 55°59' W 003°11'0 0.0
2017-Aug-14 16:59N 55°59' W 003°11'0 0.0
2017-Aug-14 16:28N 55°59' W 003°11'0 0.0
2017-Aug-14 15:58N 55°59' W 003°11'0 0.0
2017-Aug-14 15:28N 55°59' W 003°11'0 0.0
2017-Aug-14 14:58N 55°59' W 003°11'0 0.0
2017-Aug-14 14:29N 55°59' W 003°11'0 0.0
2017-Aug-14 13:58N 55°59' W 003°11'0 0.0
2017-Aug-14 13:28N 55°59' W 003°11'0 0.0
2017-Aug-14 12:58N 55°59' W 003°11'0 0.0
2017-Aug-14 12:28N 55°59' W 003°11'0 0.0
2017-Aug-14 11:58N 55°59' W 003°11'0 0.0
2017-Aug-14 11:29N 55°59' W 003°11'0 0.0
2017-Aug-14 10:58N 55°59' W 003°11'0 0.0
2017-Aug-14 10:28N 55°59' W 003°11'0 0.0
2017-Aug-14 09:58N 55°59' W 003°11'0 0.0
2017-Aug-14 09:28N 55°59' W 003°11'0 0.0
2017-Aug-14 08:58N 55°59' W 003°11'0 0.0
2017-Aug-14 08:28N 55°59' W 003°11'0 0.0
2017-Aug-14 07:59N 55°59' W 003°11'0 0.0
2017-Aug-14 07:28N 55°59' W 003°11'0 0.0
2017-Aug-14 06:58N 55°59' W 003°11'0 0.0
2017-Aug-14 06:28N 55°59' W 003°11'0 0.0
2017-Aug-14 05:58N 55°59' W 003°11'0 0.0
2017-Aug-14 05:28N 55°59' W 003°11'0 0.0
2017-Aug-14 04:55N 55°59' W 003°11'0 0.1
2017-Aug-14 04:31N 55°59' W 003°11'0 0.8
2017-Aug-14 03:59N 55°59' W 003°11'1 2.6
2017-Aug-14 03:30N 56°00' W 003°10'612.5
2017-Aug-14 03:00N 56°03' W 002°60'611.6
2017-Aug-14 02:30N 56°06' W 002°51'713.2
2017-Aug-14 02:01N 56°10' W 002°41'714.7
2017-Aug-14 01:31N 56°15' W 002°31'714.1
2017-Aug-14 01:01N 56°21' W 002°25'713.8
2017-Aug-14 00:31N 56°26' W 002°18'713.5
2017-Aug-14 00:01N 56°33' W 002°15'913.4
2017-Aug-13 23:21N 56°42' W 002°12'513.2
2017-Aug-13 22:59N 56°46' W 002°10'1413.1
2017-Aug-13 21:52N 57°01' W 002°03'513.5
2017-Aug-13 21:31N 57°05' W 002°02'4 7.0
2017-Aug-13 21:00N 57°08' W 002°04'1 1.3
2017-Aug-13 20:31N 57°09' W 002°05'0 0.0
2017-Aug-13 20:01N 57°09' W 002°05'0 0.0
2017-Aug-13 19:31N 57°09' W 002°05'0 0.0
2017-Aug-13 19:00N 57°09' W 002°05'0 0.0
2017-Aug-13 18:30N 57°09' W 002°05'0 0.0
2017-Aug-13 18:01N 57°09' W 002°05'0 0.0
2017-Aug-13 17:31N 57°09' W 002°05'0 0.0
2017-Aug-13 17:01N 57°09' W 002°05'0 0.0
2017-Aug-13 16:31N 57°09' W 002°05'0 0.0
2017-Aug-13 16:01N 57°09' W 002°05'0 0.0
2017-Aug-13 15:30N 57°09' W 002°05'0 0.0
2017-Aug-13 15:00N 57°09' W 002°05'0 0.0
2017-Aug-13 14:31N 57°09' W 002°05'0 0.0
2017-Aug-13 14:01N 57°09' W 002°05'0 0.0
2017-Aug-13 13:31N 57°09' W 002°05'0 0.0
2017-Aug-13 13:01N 57°09' W 002°05'0 0.0
2017-Aug-13 12:31N 57°09' W 002°05'0 0.0
2017-Aug-13 12:01N 57°09' W 002°05'0 0.0
2017-Aug-13 11:30N 57°09' W 002°05'0 0.0
2017-Aug-13 11:01N 57°09' W 002°05'0 0.0
2017-Aug-13 10:30N 57°09' W 002°05'0 0.0
2017-Aug-13 10:01N 57°09' W 002°05'0 0.0
2017-Aug-13 09:31N 57°09' W 002°05'0 0.0
2017-Aug-13 09:00N 57°09' W 002°05'0 0.0
2017-Aug-13 08:30N 57°09' W 002°05'0 0.0
2017-Aug-13 08:01N 57°09' W 002°05'0 0.0
2017-Aug-13 07:30N 57°09' W 002°05'0 0.0
2017-Aug-13 07:00N 57°09' W 002°05'0 0.0
2017-Aug-13 06:29N 57°09' W 002°05'0 0.0
2017-Aug-13 05:59N 57°09' W 002°05'0 0.0
2017-Aug-13 05:29N 57°09' W 002°05'0 0.1
2017-Aug-13 05:01N 57°09' W 002°05'2 4.5
2017-Aug-13 04:31N 57°10' W 002°01'4 8.4
2017-Aug-13 04:01N 57°12' W 001°55'510.2
2017-Aug-13 03:31N 57°15' W 001°48'610.6
2017-Aug-13 02:57N 57°19' W 001°40'711.0
2017-Aug-13 02:21N 57°25' W 001°35'512.0
2017-Aug-13 01:56N 57°30' W 001°35'611.5
2017-Aug-13 01:27N 57°36' W 001°36'613.5
2017-Aug-13 01:00N 57°41' W 001°40'815.1
2017-Aug-13 00:30N 57°48' W 001°46'7514.2
2017-Aug-12 19:12N 58°59' W 002°39'313.3
2017-Aug-12 19:00N 58°59' W 002°43'611.9
2017-Aug-12 18:31N 59°01' W 002°54'2 0.1
2017-Aug-12 04:20N 59°00' W 002°57'411.4
2017-Aug-12 04:00N 59°01' W 002°50'5 9.5
2017-Aug-12 03:30N 58°60' W 002°41'16 7.1
2017-Aug-12 01:17N 58°44' W 002°48'2 8.5
2017-Aug-12 01:00N 58°43' W 002°51'5 9.9
2017-Aug-12 00:30N 58°43' W 003°00'714.5
2017-Aug-12 00:00N 58°42' W 003°14'912.8
2017-Aug-11 23:20N 58°42' W 003°31'412.0
2017-Aug-11 23:00N 58°42' W 003°38'612.2
2017-Aug-11 22:30N 58°42' W 003°50'612.2
2017-Aug-11 21:59N 58°41' W 004°02'  
Track history (hours):
 
Tides and Currents Weather Stations Pressure Air Temp Water Temp Dewpoint Dewpoint Depression Visibility Wind Speed Wind Dir Waves Ship Positions

Orion II

Last reported at 2017-Aug-20 13:16 UTC. Time now 2017-Aug-20 13:40 UTC.
Position N 53°21' W 006°13'.

Length 88 m; draft 4 m.

MMSI: 249556000.

Date/timePositionNaut miles runAvg speedWind from/ knotsBaromVisibWave heightAir tempDewpointWater temp
2017-Aug-20 13:16N 53°21' W 006°13'0 0.0
2017-Aug-20 12:43N 53°21' W 006°13'0 0.0
2017-Aug-20 12:28N 53°21' W 006°13'0 0.0
2017-Aug-20 11:58N 53°21' W 006°13'0 0.0
2017-Aug-20 11:28N 53°21' W 006°13'0 0.0
2017-Aug-20 10:55N 53°21' W 006°13'0 0.0
2017-Aug-20 10:19N 53°21' W 006°13'0 0.0
2017-Aug-20 09:52N 53°21' W 006°13'0 0.0
2017-Aug-20 09:13N 53°21' W 006°13'0 0.0
2017-Aug-20 08:58N 53°21' W 006°13'0 0.0
2017-Aug-20 08:28N 53°21' W 006°13'0 0.0
2017-Aug-20 07:34N 53°21' W 006°13'0 0.0
2017-Aug-20 06:31N 53°21' W 006°13'0 0.1
2017-Aug-20 06:25N 53°21' W 006°13'0 0.0
2017-Aug-20 05:52N 53°21' W 006°13'0 0.0
2017-Aug-20 05:29N 53°21' W 006°13'1 1.4
2017-Aug-20 05:01N 53°21' W 006°12'510.6
2017-Aug-20 04:31N 53°21' W 006°03'4 7.3
2017-Aug-20 04:00N 53°23' W 005°58'4 7.6
2017-Aug-20 03:31N 53°26' W 005°54'38 8.2
2017-Aug-19 22:54N 54°01' W 005°31'410.8
2017-Aug-19 22:31N 54°05' W 005°28'611.1
2017-Aug-19 22:01N 54°10' W 005°25'611.5
2017-Aug-19 21:31N 54°15' W 005°21'611.6
2017-Aug-19 21:01N 54°21' W 005°18'612.3
2017-Aug-19 20:30N 54°27' W 005°17'612.4
2017-Aug-19 19:59N 54°33' W 005°19'613.2
2017-Aug-19 19:31N 54°38' W 005°25'612.0
2017-Aug-19 19:00N 54°42' W 005°33'612.1
2017-Aug-19 18:30N 54°42' W 005°43'611.2
2017-Aug-19 17:58N 54°39' W 005°52'3 0.3
2017-Aug-19 08:53N 54°37' W 005°55'0 0.0
2017-Aug-19 08:29N 54°37' W 005°55'0 0.0
2017-Aug-19 06:57N 54°37' W 005°55'0 1.0
2017-Aug-19 06:28N 54°37' W 005°54'4 9.4
2017-Aug-19 06:00N 54°41' W 005°49'3 6.9
2017-Aug-19 05:30N 54°42' W 005°44'3 6.3
2017-Aug-19 05:00N 54°44' W 005°40'4 8.8
2017-Aug-19 04:30N 54°48' W 005°39'3613.1
2017-Aug-19 01:44N 55°21' W 006°08'312.1
2017-Aug-19 01:30N 55°22' W 006°12'612.2
2017-Aug-19 01:00N 55°26' W 006°20'612.6
2017-Aug-19 00:31N 55°32' W 006°25'612.1
2017-Aug-19 00:00N 55°37' W 006°31'510.4
2017-Aug-18 23:30N 55°42' W 006°34'611.6
2017-Aug-18 23:01N 55°47' W 006°33'4912.8
2017-Aug-18 19:12N 56°25' W 005°37'156 3.3
2017-Aug-16 19:54N 58°51' W 003°53'411.0
2017-Aug-16 19:30N 58°52' W 003°45'510.6
2017-Aug-16 19:00N 58°54' W 003°36'611.8
2017-Aug-16 18:30N 58°56' W 003°25'4 7.8
2017-Aug-16 17:59N 58°58' W 003°18'0 0.0
2017-Aug-16 17:29N 58°58' W 003°18'0 0.0
2017-Aug-16 16:59N 58°58' W 003°18'0 0.0
2017-Aug-16 16:23N 58°58' W 003°18'0 0.0
2017-Aug-16 15:59N 58°58' W 003°18'0 0.0
2017-Aug-16 15:29N 58°58' W 003°18'0 0.0
2017-Aug-16 14:59N 58°58' W 003°18'0 0.0
2017-Aug-16 14:29N 58°58' W 003°18'0 0.0
2017-Aug-16 13:59N 58°58' W 003°18'0 0.0
2017-Aug-16 13:29N 58°58' W 003°18'0 0.0
2017-Aug-16 12:59N 58°58' W 003°18'0 0.0
2017-Aug-16 12:27N 58°58' W 003°18'0 0.0
2017-Aug-16 11:59N 58°58' W 003°18'0 0.0
2017-Aug-16 11:29N 58°58' W 003°18'0 0.0
2017-Aug-16 10:59N 58°58' W 003°18'0 0.0
2017-Aug-16 10:27N 58°58' W 003°18'0 0.0
2017-Aug-16 09:51N 58°58' W 003°18'0 0.0
2017-Aug-16 09:27N 58°58' W 003°18'0 0.0
2017-Aug-16 08:57N 58°58' W 003°18'0 0.0
2017-Aug-16 08:27N 58°58' W 003°18'0 0.0
2017-Aug-16 07:57N 58°58' W 003°18'0 0.0
2017-Aug-16 07:29N 58°58' W 003°18'0 0.0
2017-Aug-16 06:59N 58°58' W 003°18'0 0.0
2017-Aug-16 06:30N 58°58' W 003°18'1 2.8
2017-Aug-16 06:00N 58°57' W 003°16'612.8
2017-Aug-16 05:30N 58°54' W 003°05'714.1
2017-Aug-16 05:01N 58°47' W 003°02'510.8
2017-Aug-16 04:30N 58°42' W 002°59'5 9.1
2017-Aug-16 04:00N 58°38' W 002°55'5 9.0
2017-Aug-16 03:30N 58°34' W 002°49'5710.7
2017-Aug-15 22:11N 57°47' W 001°48'3 8.2
2017-Aug-15 21:48N 57°44' W 001°45'2 7.8
2017-Aug-15 21:30N 57°42' W 001°43'2810.5
2017-Aug-15 18:48N 57°15' W 001°54'311.3
2017-Aug-15 18:30N 57°12' W 001°57'510.2
2017-Aug-15 18:00N 57°09' W 002°04'1 1.3
2017-Aug-15 17:27N 57°09' W 002°05'0 0.0
2017-Aug-15 16:57N 57°09' W 002°05'0 0.0
2017-Aug-15 16:28N 57°09' W 002°05'0 0.0
2017-Aug-15 15:58N 57°09' W 002°05'0 0.0
2017-Aug-15 15:28N 57°09' W 002°05'0 0.0
2017-Aug-15 14:58N 57°09' W 002°05'0 0.0
2017-Aug-15 14:29N 57°09' W 002°05'0 0.0
2017-Aug-15 13:59N 57°09' W 002°05'0 0.0
2017-Aug-15 13:29N 57°09' W 002°05'0 0.0
2017-Aug-15 12:59N 57°09' W 002°05'0 0.0
2017-Aug-15 12:28N 57°09' W 002°05'0 0.0
2017-Aug-15 11:58N 57°09' W 002°05'0 0.0
2017-Aug-15 11:28N 57°09' W 002°05'0 0.0
2017-Aug-15 10:58N 57°09' W 002°05'0 0.0
2017-Aug-15 10:28N 57°09' W 002°05'0 0.0
2017-Aug-15 09:59N 57°09' W 002°05'0 0.0
2017-Aug-15 09:28N 57°09' W 002°05'0 0.0
2017-Aug-15 08:58N 57°09' W 002°05'0 0.0
2017-Aug-15 08:29N 57°09' W 002°05'0 0.0
2017-Aug-15 07:59N 57°09' W 002°05'0 0.0
2017-Aug-15 07:30N 57°09' W 002°05'0 0.0
2017-Aug-15 07:00N 57°09' W 002°05'0 0.0
2017-Aug-15 06:30N 57°09' W 002°05'0 0.0
2017-Aug-15 06:00N 57°09' W 002°05'0 0.5
2017-Aug-15 05:30N 57°09' W 002°05'2 4.9
2017-Aug-15 05:00N 57°08' W 002°00'2 4.4
2017-Aug-15 04:30N 57°06' W 002°01'611.3
2017-Aug-15 03:57N 57°00' W 002°04'3011.5
2017-Aug-15 01:22N 56°31' W 002°16'1512.6
2017-Aug-15 00:11N 56°18' W 002°28'213.4
2017-Aug-15 00:00N 56°16' W 002°30'713.5
2017-Aug-14 23:30N 56°11' W 002°39'713.2
2017-Aug-14 23:00N 56°07' W 002°49'713.6
2017-Aug-14 22:30N 56°04' W 002°59'611.5
2017-Aug-14 22:00N 56°01' W 003°08'2 4.4
2017-Aug-14 21:28N 55°59' W 003°11'0 0.5
2017-Aug-14 20:58N 55°59' W 003°11'0 0.3
2017-Aug-14 20:28N 55°59' W 003°11'0 0.0
2017-Aug-14 19:58N 55°59' W 003°11'0 0.0
2017-Aug-14 19:28N 55°59' W 003°11'0 0.0
2017-Aug-14 18:58N 55°59' W 003°11'0 0.0
2017-Aug-14 18:29N 55°59' W 003°11'0 0.0
2017-Aug-14 17:58N 55°59' W 003°11'0 0.0
2017-Aug-14 17:28N 55°59' W 003°11'0 0.0
2017-Aug-14 16:59N 55°59' W 003°11'0 0.0
2017-Aug-14 16:28N 55°59' W 003°11'0 0.0
2017-Aug-14 15:58N 55°59' W 003°11'0 0.0
2017-Aug-14 15:28N 55°59' W 003°11'0 0.0
2017-Aug-14 14:58N 55°59' W 003°11'0 0.0
2017-Aug-14 14:29N 55°59' W 003°11'0 0.0
2017-Aug-14 13:58N 55°59' W 003°11'0 0.0
2017-Aug-14 13:28N 55°59' W 003°11'0 0.0
2017-Aug-14 12:58N 55°59' W 003°11'0 0.0
2017-Aug-14 12:28N 55°59' W 003°11'0 0.0
2017-Aug-14 11:58N 55°59' W 003°11'0 0.0
2017-Aug-14 11:29N 55°59' W 003°11'0 0.0
2017-Aug-14 10:58N 55°59' W 003°11'0 0.0
2017-Aug-14 10:28N 55°59' W 003°11'0 0.0
2017-Aug-14 09:58N 55°59' W 003°11'0 0.0
2017-Aug-14 09:28N 55°59' W 003°11'0 0.0
2017-Aug-14 08:58N 55°59' W 003°11'0 0.0
2017-Aug-14 08:28N 55°59' W 003°11'0 0.0
2017-Aug-14 07:59N 55°59' W 003°11'0 0.0
2017-Aug-14 07:28N 55°59' W 003°11'0 0.0
2017-Aug-14 06:58N 55°59' W 003°11'0 0.0
2017-Aug-14 06:28N 55°59' W 003°11'0 0.0
2017-Aug-14 05:58N 55°59' W 003°11'0 0.0
2017-Aug-14 05:28N 55°59' W 003°11'0 0.0
2017-Aug-14 04:55N 55°59' W 003°11'0 0.1
2017-Aug-14 04:31N 55°59' W 003°11'0 0.8
2017-Aug-14 03:59N 55°59' W 003°11'1 2.6
2017-Aug-14 03:30N 56°00' W 003°10'612.5
2017-Aug-14 03:00N 56°03' W 002°60'611.6
2017-Aug-14 02:30N 56°06' W 002°51'713.2
2017-Aug-14 02:01N 56°10' W 002°41'714.7
2017-Aug-14 01:31N 56°15' W 002°31'714.1
2017-Aug-14 01:01N 56°21' W 002°25'713.8
2017-Aug-14 00:31N 56°26' W 002°18'713.5
2017-Aug-14 00:01N 56°33' W 002°15'913.4
2017-Aug-13 23:21N 56°42' W 002°12'513.2
2017-Aug-13 22:59N 56°46' W 002°10'1413.1
2017-Aug-13 21:52N 57°01' W 002°03'513.5
2017-Aug-13 21:31N 57°05' W 002°02'4 7.0
2017-Aug-13 21:00N 57°08' W 002°04'1 1.3
2017-Aug-13 20:31N 57°09' W 002°05'0 0.0
2017-Aug-13 20:01N 57°09' W 002°05'0 0.0
2017-Aug-13 19:31N 57°09' W 002°05'0 0.0
2017-Aug-13 19:00N 57°09' W 002°05'0 0.0
2017-Aug-13 18:30N 57°09' W 002°05'0 0.0
2017-Aug-13 18:01N 57°09' W 002°05'0 0.0
2017-Aug-13 17:31N 57°09' W 002°05'0 0.0
2017-Aug-13 17:01N 57°09' W 002°05'0 0.0
2017-Aug-13 16:31N 57°09' W 002°05'0 0.0
2017-Aug-13 16:01N 57°09' W 002°05'0 0.0
2017-Aug-13 15:30N 57°09' W 002°05'0 0.0
2017-Aug-13 15:00N 57°09' W 002°05'0 0.0
2017-Aug-13 14:31N 57°09' W 002°05'0 0.0
2017-Aug-13 14:01N 57°09' W 002°05'0 0.0
2017-Aug-13 13:31N 57°09' W 002°05'0 0.0
2017-Aug-13 13:01N 57°09' W 002°05'0 0.0
2017-Aug-13 12:31N 57°09' W 002°05'0 0.0
2017-Aug-13 12:01N 57°09' W 002°05'0 0.0
2017-Aug-13 11:30N 57°09' W 002°05'0 0.0
2017-Aug-13 11:01N 57°09' W 002°05'0 0.0
2017-Aug-13 10:30N 57°09' W 002°05'0 0.0
2017-Aug-13 10:01N 57°09' W 002°05'0 0.0
2017-Aug-13 09:31N 57°09' W 002°05'0 0.0
2017-Aug-13 09:00N 57°09' W 002°05'0 0.0
2017-Aug-13 08:30N 57°09' W 002°05'0 0.0
2017-Aug-13 08:01N 57°09' W 002°05'0 0.0
2017-Aug-13 07:30N 57°09' W 002°05'0 0.0
2017-Aug-13 07:00N 57°09' W 002°05'0 0.0
2017-Aug-13 06:29N 57°09' W 002°05'0 0.0
2017-Aug-13 05:59N 57°09' W 002°05'0 0.0
2017-Aug-13 05:29N 57°09' W 002°05'0 0.1
2017-Aug-13 05:01N 57°09' W 002°05'2 4.5
2017-Aug-13 04:31N 57°10' W 002°01'4 8.4
2017-Aug-13 04:01N 57°12' W 001°55'510.2
2017-Aug-13 03:31N 57°15' W 001°48'610.6
2017-Aug-13 02:57N 57°19' W 001°40'711.0
2017-Aug-13 02:21N 57°25' W 001°35'512.0
2017-Aug-13 01:56N 57°30' W 001°35'611.5
2017-Aug-13 01:27N 57°36' W 001°36'613.5
2017-Aug-13 01:00N 57°41' W 001°40'815.1
2017-Aug-13 00:30N 57°48' W 001°46'7514.2
2017-Aug-12 19:12N 58°59' W 002°39'313.3
2017-Aug-12 19:00N 58°59' W 002°43'611.9
2017-Aug-12 18:31N 59°01' W 002°54'2 0.1
2017-Aug-12 04:20N 59°00' W 002°57'411.4
2017-Aug-12 04:00N 59°01' W 002°50'5 9.5
2017-Aug-12 03:30N 58°60' W 002°41'16 7.1
2017-Aug-12 01:17N 58°44' W 002°48'2 8.5
2017-Aug-12 01:00N 58°43' W 002°51'5 9.9
2017-Aug-12 00:30N 58°43' W 003°00'714.5
2017-Aug-12 00:00N 58°42' W 003°14'912.8
2017-Aug-11 23:20N 58°42' W 003°31'412.0
2017-Aug-11 23:00N 58°42' W 003°38'612.2
2017-Aug-11 22:30N 58°42' W 003°50'612.2
2017-Aug-11 21:59N 58°41' W 004°02'  

Dump ship's entire track history